createdAt,value
2022-08-11T00:00:53.781Z,6.10
2022-08-11T00:05:57.827Z,3.80
2022-08-11T00:11:07.396Z,4.40
2022-08-11T00:16:25.103Z,4.70
2022-08-11T00:22:01.863Z,3.70
2022-08-11T00:26:55.499Z,3.30
2022-08-11T00:32:03.192Z,3.60
2022-08-11T00:37:18.873Z,4.20
2022-08-11T00:42:55.701Z,3.20
2022-08-11T00:48:25.094Z,3.40
2022-08-11T00:53:44.103Z,3.50
2022-08-11T00:59:42.621Z,5.20
2022-08-11T01:05:08.313Z,5.90
2022-08-11T01:11:06.509Z,5.40
2022-08-11T01:16:45.684Z,5.70
2022-08-11T01:22:04.058Z,6.10
2022-08-11T01:32:55.624Z,4.60
2022-08-11T01:38:18.695Z,6.80
2022-08-11T01:43:55.880Z,5.10
2022-08-11T01:49:29.076Z,4.60
2022-08-11T01:55:26.975Z,5.00
2022-08-11T02:00:40.551Z,4.10
2022-08-11T02:06:33.715Z,5.20
2022-08-11T02:11:39.242Z,5.10
2022-08-11T02:17:18.436Z,3.60
2022-08-11T02:24:04.225Z,4.90
2022-08-11T02:28:58.464Z,4.80
2022-08-11T02:34:28.693Z,5.10
2022-08-11T02:39:56.261Z,3.60
2022-08-11T02:45:27.226Z,4.60
2022-08-11T02:50:56.646Z,5.20
2022-08-11T02:56:44.843Z,4.40
2022-08-11T03:07:40.494Z,3.60
2022-08-11T03:13:34.385Z,3.60
2022-08-11T03:18:59.822Z,4.90
2022-08-11T03:24:19.504Z,4.50
2022-08-11T03:29:48.140Z,9.70
2022-08-11T03:34:55.136Z,4.30
2022-08-11T03:40:07.749Z,6.10
2022-08-11T03:45:42.485Z,3.50
2022-08-11T03:50:58.690Z,5.30
2022-08-11T03:56:11.753Z,3.90
2022-08-11T04:01:46.264Z,5.50
2022-08-11T04:07:20.407Z,4.80
2022-08-11T04:12:49.058Z,72.30
2022-08-11T04:18:29.490Z,47.80
2022-08-11T04:24:35.747Z,35.60
2022-08-11T04:30:03.592Z,19.10
2022-08-11T04:35:48.658Z,18.60
2022-08-11T04:41:33.441Z,16.40
2022-08-11T04:48:01.742Z,10.10
2022-08-11T04:53:38.773Z,10.90
2022-08-11T04:59:00.586Z,9.30
2022-08-11T05:04:40.764Z,12.20
2022-08-11T05:10:16.330Z,10.00
2022-08-11T05:16:19.037Z,11.10
2022-08-11T05:21:45.276Z,8.90
2022-08-11T05:27:13.591Z,6.00
2022-08-11T05:32:37.561Z,4.80
2022-08-11T05:38:06.277Z,4.70
2022-08-11T05:43:33.039Z,5.10
2022-08-11T05:48:56.319Z,5.20
2022-08-11T05:54:29.045Z,9.10
2022-08-11T05:59:34.527Z,6.60
2022-08-11T06:04:38.746Z,5.60
2022-08-11T06:09:44.897Z,6.20
2022-08-11T06:14:54.977Z,5.30
2022-08-11T06:20:07.021Z,3.70
2022-08-11T06:25:12.561Z,9.20
2022-08-11T06:30:16.263Z,4.50
2022-08-11T06:35:37.969Z,4.20
2022-08-11T06:41:15.624Z,5.20
2022-08-11T06:46:31.643Z,5.10
2022-08-11T06:51:38.643Z,5.60
2022-08-11T06:57:28.971Z,5.00
2022-08-11T07:02:50.168Z,5.50
2022-08-11T07:08:34.444Z,3.50
2022-08-11T07:13:59.565Z,5.40
2022-08-11T07:19:26.527Z,4.80
2022-08-11T07:25:02.490Z,3.60
2022-08-11T07:30:10.836Z,3.20
2022-08-11T07:35:20.953Z,7.70
2022-08-11T07:40:25.958Z,4.90
2022-08-11T07:45:49.368Z,4.40
2022-08-11T07:51:13.744Z,5.60
2022-08-11T07:56:21.828Z,5.40
2022-08-11T08:01:57.278Z,3.00
2022-08-11T08:07:23.401Z,3.60
2022-08-11T08:12:46.769Z,2.30
2022-08-11T08:18:09.506Z,7.40
2022-08-11T08:23:33.653Z,4.80
2022-08-11T08:28:37.856Z,2.90
2022-08-11T08:33:43.036Z,1.90
2022-08-11T08:38:54.357Z,2.90
2022-08-11T08:44:27.809Z,3.70
2022-08-11T08:49:50.942Z,6.30
2022-08-11T08:55:01.477Z,2.50
2022-08-11T09:00:08.911Z,3.90
2022-08-11T09:05:19.886Z,1.80
2022-08-11T09:10:23.951Z,5.60
2022-08-11T09:15:28.575Z,4.30
2022-08-11T09:20:35.441Z,3.20
2022-08-11T09:25:57.287Z,2.50
2022-08-11T09:31:02.889Z,2.80
2022-08-11T09:36:27.056Z,2.50
2022-08-11T09:42:01.249Z,2.10
2022-08-11T09:46:59.699Z,3.80
2022-08-11T09:52:09.857Z,3.20
2022-08-11T09:57:32.317Z,4.40
2022-08-11T10:02:46.387Z,3.30
2022-08-11T10:07:53.724Z,2.40
2022-08-11T10:13:04.568Z,1.70
2022-08-11T10:18:35.017Z,3.00
2022-08-11T10:24:00.319Z,2.40
2022-08-11T10:29:33.438Z,3.40
2022-08-11T10:34:54.477Z,2.10
2022-08-11T10:40:02.186Z,1.70
2022-08-11T10:45:27.206Z,2.90
2022-08-11T10:50:50.588Z,3.40
2022-08-11T10:56:13.767Z,5.40
2022-08-11T11:01:16.918Z,2.00
2022-08-11T11:06:51.223Z,2.60
2022-08-11T11:12:40.232Z,1.80
2022-08-11T11:18:02.159Z,2.80
2022-08-11T11:23:11.609Z,3.00
2022-08-11T11:29:10.628Z,2.70
2022-08-11T11:34:52.808Z,1.50
2022-08-11T11:39:58.624Z,1.80
2022-08-11T11:45:04.635Z,2.30
2022-08-11T11:50:09.528Z,2.30
2022-08-11T11:55:13.216Z,3.50
2022-08-11T12:00:38.259Z,3.70
2022-08-11T12:05:45.272Z,2.00
2022-08-11T12:11:12.960Z,1.60
2022-08-11T12:16:33.684Z,3.20
2022-08-11T12:23:27.789Z,1.70
2022-08-11T12:28:33.528Z,3.80
2022-08-11T12:33:41.270Z,3.60
2022-08-11T12:38:51.862Z,1.80
2022-08-11T12:44:24.771Z,2.40
2022-08-11T12:49:54.275Z,2.40
2022-08-11T12:55:12.538Z,1.70
2022-08-11T13:00:37.151Z,1.10
2022-08-11T13:05:45.156Z,1.60
2022-08-11T13:11:11.208Z,2.60
2022-08-11T13:16:15.447Z,2.20
2022-08-11T13:21:20.539Z,1.80
2022-08-11T13:26:36.941Z,7.90
2022-08-11T13:31:50.138Z,3.00
2022-08-11T13:36:58.217Z,2.00
2022-08-11T13:42:03.868Z,2.00
2022-08-11T13:47:10.393Z,2.00
2022-08-11T13:52:17.043Z,5.30
2022-08-11T13:58:19.331Z,1.70
2022-08-11T14:02:50.847Z,2.10
2022-08-11T14:08:02.101Z,3.70
2022-08-11T14:13:42.290Z,2.40
2022-08-11T14:29:21.157Z,1.50
2022-08-11T14:34:30.002Z,2.40
2022-08-11T14:39:38.611Z,2.30
2022-08-11T14:45:15.531Z,2.10
2022-08-11T14:50:27.136Z,2.00
2022-08-11T14:55:55.132Z,1.20
2022-08-11T15:01:32.845Z,2.10
2022-08-11T15:06:37.496Z,1.50
2022-08-11T15:12:00.970Z,1.10
2022-08-11T15:17:12.065Z,2.60
2022-08-11T15:22:34.321Z,3.00
2022-08-11T15:27:59.438Z,2.50
2022-08-11T15:33:27.329Z,2.80
2022-08-11T15:38:36.435Z,1.70
2022-08-11T15:44:08.189Z,3.60
2022-08-11T15:50:13.196Z,1.80
2022-08-11T15:55:02.405Z,1.60
2022-08-11T16:00:26.553Z,2.70
2022-08-11T16:05:57.750Z,1.50
2022-08-11T16:11:03.925Z,2.90
2022-08-11T16:16:15.343Z,1.50
2022-08-11T16:21:36.205Z,1.60
2022-08-11T16:27:10.384Z,4.00
2022-08-11T16:32:17.897Z,2.00
2022-08-11T16:37:42.197Z,2.90
2022-08-11T16:43:11.066Z,3.50
2022-08-11T16:48:35.263Z,4.00
2022-08-11T16:54:00.090Z,1.10
2022-08-11T16:59:18.401Z,2.80
2022-08-11T17:05:11.269Z,1.20
2022-08-11T17:10:56.489Z,4.80
2022-08-11T17:16:09.481Z,2.20
2022-08-11T17:22:01.547Z,3.50
2022-08-11T17:27:08.299Z,2.30
2022-08-11T17:32:56.030Z,2.80
2022-08-11T17:38:18.474Z,2.90
2022-08-11T17:43:40.418Z,3.60
2022-08-11T17:48:47.881Z,3.40
2022-08-11T17:54:24.360Z,8.30
2022-08-11T17:59:49.306Z,2.30
2022-08-11T18:04:55.033Z,4.20
2022-08-11T18:10:18.565Z,4.90
2022-08-11T18:15:50.062Z,3.90
2022-08-11T18:26:44.398Z,3.60
2022-08-11T18:32:09.151Z,2.00
2022-08-11T18:37:38.107Z,4.00
2022-08-11T18:43:03.753Z,3.20
2022-08-11T18:48:40.247Z,4.90
2022-08-11T18:54:12.105Z,3.10
2022-08-11T18:59:41.455Z,3.00
2022-08-11T19:05:05.068Z,4.40
2022-08-11T19:10:28.736Z,4.50
2022-08-11T19:15:52.188Z,4.00
2022-08-11T19:21:15.978Z,3.00
2022-08-11T19:26:39.367Z,4.40
2022-08-11T19:32:03.573Z,7.00
2022-08-11T19:37:28.434Z,5.60
2022-08-11T19:42:51.801Z,5.80
2022-08-11T19:48:31.314Z,6.30
2022-08-11T19:53:55.733Z,4.20
2022-08-11T19:59:19.015Z,6.70
2022-08-11T20:04:41.775Z,9.00
2022-08-11T20:10:06.867Z,5.60
2022-08-11T20:15:30.992Z,4.50
2022-08-11T20:20:54.295Z,4.80
2022-08-11T20:26:34.836Z,5.10
2022-08-11T20:31:58.059Z,5.70
2022-08-11T20:37:23.101Z,9.40
2022-08-11T20:42:47.968Z,6.00
2022-08-11T20:55:01.591Z,8.90
2022-08-11T21:00:39.376Z,5.10
2022-08-11T21:06:10.581Z,9.20
2022-08-11T21:11:36.295Z,4.30
2022-08-11T21:17:04.493Z,4.60
2022-08-11T21:23:05.605Z,4.60
2022-08-11T21:28:30.977Z,3.30
2022-08-11T21:33:54.158Z,5.00
2022-08-11T21:39:16.994Z,5.10
2022-08-11T21:44:42.877Z,3.80
2022-08-11T21:50:06.459Z,3.20
2022-08-11T21:55:29.852Z,3.90
2022-08-11T22:00:53.211Z,3.60
2022-08-11T22:06:16.718Z,4.60
2022-08-11T22:11:40.099Z,2.40
2022-08-11T22:17:01.844Z,4.50
2022-08-11T22:22:26.246Z,3.50
2022-08-11T22:27:49.537Z,3.30
2022-08-11T22:33:12.717Z,4.90
2022-08-11T22:38:39.645Z,4.70
2022-08-11T22:44:01.838Z,3.60
2022-08-11T22:49:25.693Z,5.40
2022-08-11T22:54:49.376Z,3.10
2022-08-11T23:00:13.166Z,3.40
2022-08-11T23:05:37.884Z,4.10
2022-08-11T23:11:01.466Z,5.60
2022-08-11T23:16:24.027Z,4.50
2022-08-11T23:21:48.243Z,5.00
2022-08-11T23:27:10.900Z,6.20
2022-08-11T23:32:33.561Z,4.20
2022-08-11T23:37:56.228Z,2.90
2022-08-11T23:43:22.881Z,4.00
2022-08-11T23:48:50.058Z,3.90
2022-08-11T23:54:12.320Z,3.70
2022-08-11T23:59:36.201Z,2.60
